sensor_id;sensor_type;location;lat;lon;timestamp;P1;durP1;ratioP1;P2;durP2;ratioP2
7233;SDS011;3658;47.992;10.158;2023-04-03T00:02:02;1.30;;;1.00;;
7233;SDS011;3658;47.992;10.158;2023-04-03T00:04:29;1.20;;;1.10;;
7233;SDS011;3658;47.992;10.158;2023-04-03T00:06:56;1.20;;;1.10;;
7233;SDS011;3658;47.992;10.158;2023-04-03T00:09:23;0.90;;;0.90;;
7233;SDS011;3658;47.992;10.158;2023-04-03T00:11:51;1.47;;;1.10;;
7233;SDS011;3658;47.992;10.158;2023-04-03T00:14:18;1.17;;;1.07;;
7233;SDS011;3658;47.992;10.158;2023-04-03T00:16:45;1.30;;;1.20;;
7233;SDS011;3658;47.992;10.158;2023-04-03T00:19:12;1.20;;;1.10;;
7233;SDS011;3658;47.992;10.158;2023-04-03T00:21:39;1.20;;;1.10;;
7233;SDS011;3658;47.992;10.158;2023-04-03T00:24:06;1.30;;;1.07;;
7233;SDS011;3658;47.992;10.158;2023-04-03T00:26:33;1.20;;;1.10;;
7233;SDS011;3658;47.992;10.158;2023-04-03T00:29:01;1.47;;;1.10;;
7233;SDS011;3658;47.992;10.158;2023-04-03T00:31:28;1.27;;;1.17;;
7233;SDS011;3658;47.992;10.158;2023-04-03T00:33:55;0.93;;;0.93;;
7233;SDS011;3658;47.992;10.158;2023-04-03T00:36:22;1.20;;;1.10;;
7233;SDS011;3658;47.992;10.158;2023-04-03T00:38:49;1.20;;;1.10;;
7233;SDS011;3658;47.992;10.158;2023-04-03T00:41:16;1.20;;;1.10;;
7233;SDS011;3658;47.992;10.158;2023-04-03T00:43:43;1.50;;;1.20;;
7233;SDS011;3658;47.992;10.158;2023-04-03T00:46:11;1.40;;;1.20;;
7233;SDS011;3658;47.992;10.158;2023-04-03T00:48:39;1.00;;;1.00;;
7233;SDS011;3658;47.992;10.158;2023-04-03T00:51:09;1.20;;;1.10;;
7233;SDS011;3658;47.992;10.158;2023-04-03T00:53:40;1.20;;;1.10;;
7233;SDS011;3658;47.992;10.158;2023-04-03T00:56:11;1.30;;;1.20;;
7233;SDS011;3658;47.992;10.158;2023-04-03T00:58:42;1.77;;;1.30;;
7233;SDS011;3658;47.992;10.158;2023-04-03T01:01:16;1.10;;;1.10;;
7233;SDS011;3658;47.992;10.158;2023-04-03T01:03:46;1.43;;;1.33;;
7233;SDS011;3658;47.992;10.158;2023-04-03T01:06:13;1.20;;;1.10;;
7233;SDS011;3658;47.992;10.158;2023-04-03T01:08:43;1.30;;;1.20;;
7233;SDS011;3658;47.992;10.158;2023-04-03T01:11:11;1.20;;;1.10;;
7233;SDS011;3658;47.992;10.158;2023-04-03T01:13:38;1.30;;;1.20;;
7233;SDS011;3658;47.992;10.158;2023-04-03T01:16:06;1.20;;;1.10;;
7233;SDS011;3658;47.992;10.158;2023-04-03T01:18:36;1.13;;;1.10;;
7233;SDS011;3658;47.992;10.158;2023-04-03T01:21:22;1.20;;;1.10;;
7233;SDS011;3658;47.992;10.158;2023-04-03T01:26:56;1.30;;;1.20;;
7233;SDS011;3658;47.992;10.158;2023-04-03T01:29:24;1.00;;;1.00;;
7233;SDS011;3658;47.992;10.158;2023-04-03T01:31:52;1.33;;;1.23;;
7233;SDS011;3658;47.992;10.158;2023-04-03T01:34:20;1.57;;;1.47;;
7233;SDS011;3658;47.992;10.158;2023-04-03T01:36:47;1.27;;;1.17;;
7233;SDS011;3658;47.992;10.158;2023-04-03T01:39:15;1.40;;;1.30;;
7233;SDS011;3658;47.992;10.158;2023-04-03T01:41:42;1.63;;;1.30;;
7233;SDS011;3658;47.992;10.158;2023-04-03T01:44:10;2.10;;;1.30;;
7233;SDS011;3658;47.992;10.158;2023-04-03T01:46:37;1.20;;;1.10;;
7233;SDS011;3658;47.992;10.158;2023-04-03T01:49:05;1.37;;;1.20;;
7233;SDS011;3658;47.992;10.158;2023-04-03T01:51:32;1.43;;;1.20;;
7233;SDS011;3658;47.992;10.158;2023-04-03T01:54:00;1.40;;;1.30;;
7233;SDS011;3658;47.992;10.158;2023-04-03T01:56:27;1.30;;;1.20;;
7233;SDS011;3658;47.992;10.158;2023-04-03T01:58:54;1.40;;;1.30;;
7233;SDS011;3658;47.992;10.158;2023-04-03T02:01:21;1.50;;;1.40;;
7233;SDS011;3658;47.992;10.158;2023-04-03T02:03:48;1.37;;;1.23;;
7233;SDS011;3658;47.992;10.158;2023-04-03T02:06:17;1.60;;;1.40;;
7233;SDS011;3658;47.992;10.158;2023-04-03T02:08:44;1.30;;;1.20;;
7233;SDS011;3658;47.992;10.158;2023-04-03T02:11:11;1.20;;;1.10;;
7233;SDS011;3658;47.992;10.158;2023-04-03T02:13:38;1.40;;;1.30;;
7233;SDS011;3658;47.992;10.158;2023-04-03T02:16:08;1.40;;;1.30;;
7233;SDS011;3658;47.992;10.158;2023-04-03T02:18:36;1.40;;;1.30;;
7233;SDS011;3658;47.992;10.158;2023-04-03T02:21:03;1.60;;;1.50;;
7233;SDS011;3658;47.992;10.158;2023-04-03T02:23:32;1.23;;;1.13;;
7233;SDS011;3658;47.992;10.158;2023-04-03T02:26:05;1.40;;;1.30;;
7233;SDS011;3658;47.992;10.158;2023-04-03T02:28:33;1.30;;;1.20;;
7233;SDS011;3658;47.992;10.158;2023-04-03T02:31:00;1.40;;;1.30;;
7233;SDS011;3658;47.992;10.158;2023-04-03T02:33:28;1.67;;;1.47;;
7233;SDS011;3658;47.992;10.158;2023-04-03T02:35:55;1.63;;;1.53;;
7233;SDS011;3658;47.992;10.158;2023-04-03T02:38:23;1.40;;;1.30;;
7233;SDS011;3658;47.992;10.158;2023-04-03T02:40:52;1.43;;;1.33;;
7233;SDS011;3658;47.992;10.158;2023-04-03T02:43:18;1.43;;;1.33;;
7233;SDS011;3658;47.992;10.158;2023-04-03T02:45:45;1.47;;;1.37;;
7233;SDS011;3658;47.992;10.158;2023-04-03T02:48:12;1.40;;;1.30;;
7233;SDS011;3658;47.992;10.158;2023-04-03T02:50:41;1.63;;;1.53;;
7233;SDS011;3658;47.992;10.158;2023-04-03T02:53:08;1.27;;;1.17;;
7233;SDS011;3658;47.992;10.158;2023-04-03T02:55:35;1.63;;;1.47;;
7233;SDS011;3658;47.992;10.158;2023-04-03T02:58:04;2.27;;;1.70;;
7233;SDS011;3658;47.992;10.158;2023-04-03T03:00:31;2.10;;;1.47;;
7233;SDS011;3658;47.992;10.158;2023-04-03T03:02:58;4.63;;;1.37;;
7233;SDS011;3658;47.992;10.158;2023-04-03T03:05:26;2.80;;;1.50;;
7233;SDS011;3658;47.992;10.158;2023-04-03T03:07:53;1.33;;;1.23;;
7233;SDS011;3658;47.992;10.158;2023-04-03T03:10:20;2.77;;;1.40;;
7233;SDS011;3658;47.992;10.158;2023-04-03T03:12:48;1.80;;;1.30;;
7233;SDS011;3658;47.992;10.158;2023-04-03T03:15:17;3.10;;;1.40;;
7233;SDS011;3658;47.992;10.158;2023-04-03T03:17:44;1.63;;;1.20;;
7233;SDS011;3658;47.992;10.158;2023-04-03T03:20:12;1.23;;;1.13;;
7233;SDS011;3658;47.992;10.158;2023-04-03T03:22:40;1.90;;;1.30;;
7233;SDS011;3658;47.992;10.158;2023-04-03T03:25:08;2.83;;;1.30;;
7233;SDS011;3658;47.992;10.158;2023-04-03T03:27:35;3.30;;;1.40;;
7233;SDS011;3658;47.992;10.158;2023-04-03T03:30:02;1.30;;;1.20;;
7233;SDS011;3658;47.992;10.158;2023-04-03T03:32:31;1.43;;;1.07;;
7233;SDS011;3658;47.992;10.158;2023-04-03T03:34:58;2.93;;;1.23;;
7233;SDS011;3658;47.992;10.158;2023-04-03T03:37:25;1.43;;;1.30;;
7233;SDS011;3658;47.992;10.158;2023-04-03T03:39:52;1.30;;;1.20;;
7233;SDS011;3658;47.992;10.158;2023-04-03T03:42:19;1.40;;;1.30;;
7233;SDS011;3658;47.992;10.158;2023-04-03T03:44:45;1.40;;;1.30;;
7233;SDS011;3658;47.992;10.158;2023-04-03T03:47:12;3.13;;;1.50;;
7233;SDS011;3658;47.992;10.158;2023-04-03T03:49:41;1.37;;;1.27;;
7233;SDS011;3658;47.992;10.158;2023-04-03T03:52:07;1.43;;;1.33;;
7233;SDS011;3658;47.992;10.158;2023-04-03T03:54:35;1.77;;;1.40;;
7233;SDS011;3658;47.992;10.158;2023-04-03T03:57:02;1.33;;;1.23;;
7233;SDS011;3658;47.992;10.158;2023-04-03T03:59:30;2.73;;;1.30;;
7233;SDS011;3658;47.992;10.158;2023-04-03T04:01:57;1.50;;;1.40;;
7233;SDS011;3658;47.992;10.158;2023-04-03T04:04:24;1.47;;;1.37;;
7233;SDS011;3658;47.992;10.158;2023-04-03T04:06:52;2.23;;;1.33;;
7233;SDS011;3658;47.992;10.158;2023-04-03T04:09:19;1.90;;;1.63;;
7233;SDS011;3658;47.992;10.158;2023-04-03T04:11:46;1.43;;;1.33;;
7233;SDS011;3658;47.992;10.158;2023-04-03T04:14:13;1.30;;;1.20;;
7233;SDS011;3658;47.992;10.158;2023-04-03T04:16:40;1.60;;;1.40;;
7233;SDS011;3658;47.992;10.158;2023-04-03T04:19:07;1.40;;;1.30;;
7233;SDS011;3658;47.992;10.158;2023-04-03T04:21:37;1.60;;;1.50;;
7233;SDS011;3658;47.992;10.158;2023-04-03T04:24:07;1.20;;;1.10;;
7233;SDS011;3658;47.992;10.158;2023-04-03T04:26:34;1.67;;;1.30;;
7233;SDS011;3658;47.992;10.158;2023-04-03T04:29:01;1.37;;;1.27;;
7233;SDS011;3658;47.992;10.158;2023-04-03T04:31:28;1.27;;;1.17;;
7233;SDS011;3658;47.992;10.158;2023-04-03T04:33:55;2.83;;;1.50;;
7233;SDS011;3658;47.992;10.158;2023-04-03T04:36:22;1.73;;;1.30;;
7233;SDS011;3658;47.992;10.158;2023-04-03T04:38:49;2.03;;;1.13;;
7233;SDS011;3658;47.992;10.158;2023-04-03T04:41:19;1.70;;;1.20;;
7233;SDS011;3658;47.992;10.158;2023-04-03T04:43:47;1.20;;;1.10;;
7233;SDS011;3658;47.992;10.158;2023-04-03T04:46:14;1.23;;;1.13;;
7233;SDS011;3658;47.992;10.158;2023-04-03T04:48:41;1.50;;;1.37;;
7233;SDS011;3658;47.992;10.158;2023-04-03T04:51:08;1.70;;;1.33;;
7233;SDS011;3658;47.992;10.158;2023-04-03T04:53:35;1.40;;;1.30;;
7233;SDS011;3658;47.992;10.158;2023-04-03T04:56:02;1.20;;;1.10;;
7233;SDS011;3658;47.992;10.158;2023-04-03T04:58:31;1.30;;;1.20;;
7233;SDS011;3658;47.992;10.158;2023-04-03T05:00:58;1.40;;;1.30;;
7233;SDS011;3658;47.992;10.158;2023-04-03T05:03:26;3.27;;;1.40;;
7233;SDS011;3658;47.992;10.158;2023-04-03T05:05:53;1.43;;;1.30;;
7233;SDS011;3658;47.992;10.158;2023-04-03T05:08:20;1.30;;;1.20;;
7233;SDS011;3658;47.992;10.158;2023-04-03T05:10:47;1.93;;;1.13;;
7233;SDS011;3658;47.992;10.158;2023-04-03T05:13:14;2.10;;;1.10;;
7233;SDS011;3658;47.992;10.158;2023-04-03T05:15:43;1.87;;;1.10;;
7233;SDS011;3658;47.992;10.158;2023-04-03T05:18:10;1.70;;;1.53;;
7233;SDS011;3658;47.992;10.158;2023-04-03T05:20:37;2.13;;;1.30;;
7233;SDS011;3658;47.992;10.158;2023-04-03T05:23:04;2.27;;;1.40;;
7233;SDS011;3658;47.992;10.158;2023-04-03T05:25:31;4.53;;;1.43;;
7233;SDS011;3658;47.992;10.158;2023-04-03T05:27:58;2.97;;;1.53;;
7233;SDS011;3658;47.992;10.158;2023-04-03T05:30:25;5.80;;;1.33;;
7233;SDS011;3658;47.992;10.158;2023-04-03T05:32:53;8.63;;;1.70;;
7233;SDS011;3658;47.992;10.158;2023-04-03T05:35:21;3.50;;;1.40;;
7233;SDS011;3658;47.992;10.158;2023-04-03T05:37:48;3.97;;;1.60;;
7233;SDS011;3658;47.992;10.158;2023-04-03T05:40:16;9.90;;;1.60;;
7233;SDS011;3658;47.992;10.158;2023-04-03T05:42:44;5.67;;;1.50;;
7233;SDS011;3658;47.992;10.158;2023-04-03T05:45:11;5.80;;;1.53;;
7233;SDS011;3658;47.992;10.158;2023-04-03T05:47:38;3.10;;;1.70;;
7233;SDS011;3658;47.992;10.158;2023-04-03T05:50:07;7.17;;;1.70;;
7233;SDS011;3658;47.992;10.158;2023-04-03T05:52:35;2.77;;;1.50;;
7233;SDS011;3658;47.992;10.158;2023-04-03T05:55:04;7.17;;;1.63;;
7233;SDS011;3658;47.992;10.158;2023-04-03T05:57:31;2.93;;;1.40;;
7233;SDS011;3658;47.992;10.158;2023-04-03T05:59:58;4.37;;;1.30;;
7233;SDS011;3658;47.992;10.158;2023-04-03T06:02:25;4.47;;;1.60;;
7233;SDS011;3658;47.992;10.158;2023-04-03T06:04:52;3.13;;;1.40;;
7233;SDS011;3658;47.992;10.158;2023-04-03T06:07:21;3.33;;;1.60;;
7233;SDS011;3658;47.992;10.158;2023-04-03T06:09:53;3.20;;;1.60;;
7233;SDS011;3658;47.992;10.158;2023-04-03T06:12:21;3.83;;;1.80;;
7233;SDS011;3658;47.992;10.158;2023-04-03T06:14:49;4.90;;;1.70;;
7233;SDS011;3658;47.992;10.158;2023-04-03T06:17:16;1.57;;;1.30;;
7233;SDS011;3658;47.992;10.158;2023-04-03T06:19:44;2.60;;;1.50;;
7233;SDS011;3658;47.992;10.158;2023-04-03T06:22:11;6.13;;;1.63;;
7233;SDS011;3658;47.992;10.158;2023-04-03T06:24:40;1.90;;;1.13;;
7233;SDS011;3658;47.992;10.158;2023-04-03T06:27:09;5.43;;;1.70;;
7233;SDS011;3658;47.992;10.158;2023-04-03T06:29:37;2.00;;;1.43;;
7233;SDS011;3658;47.992;10.158;2023-04-03T06:32:04;1.73;;;1.40;;
7233;SDS011;3658;47.992;10.158;2023-04-03T06:34:31;2.03;;;1.50;;
7233;SDS011;3658;47.992;10.158;2023-04-03T06:36:58;3.27;;;1.47;;
7233;SDS011;3658;47.992;10.158;2023-04-03T06:39:25;5.37;;;1.50;;
7233;SDS011;3658;47.992;10.158;2023-04-03T06:41:54;1.30;;;1.20;;
7233;SDS011;3658;47.992;10.158;2023-04-03T06:44:21;2.83;;;1.50;;
7233;SDS011;3658;47.992;10.158;2023-04-03T06:46:48;2.10;;;1.30;;
7233;SDS011;3658;47.992;10.158;2023-04-03T06:49:16;2.77;;;1.50;;
7233;SDS011;3658;47.992;10.158;2023-04-03T06:51:43;3.37;;;1.50;;
7233;SDS011;3658;47.992;10.158;2023-04-03T06:54:10;2.20;;;1.53;;
7233;SDS011;3658;47.992;10.158;2023-04-03T06:56:37;2.33;;;1.30;;
7233;SDS011;3658;47.992;10.158;2023-04-03T06:59:06;1.50;;;1.40;;
7233;SDS011;3658;47.992;10.158;2023-04-03T07:01:33;1.80;;;1.20;;
7233;SDS011;3658;47.992;10.158;2023-04-03T07:04:00;3.23;;;1.33;;
7233;SDS011;3658;47.992;10.158;2023-04-03T07:06:27;2.00;;;1.40;;
7233;SDS011;3658;47.992;10.158;2023-04-03T07:08:56;1.63;;;1.30;;
7233;SDS011;3658;47.992;10.158;2023-04-03T07:11:23;1.53;;;1.23;;
7233;SDS011;3658;47.992;10.158;2023-04-03T07:13:51;1.40;;;1.20;;
7233;SDS011;3658;47.992;10.158;2023-04-03T07:16:20;1.47;;;1.33;;
7233;SDS011;3658;47.992;10.158;2023-04-03T07:18:47;1.50;;;1.40;;
7233;SDS011;3658;47.992;10.158;2023-04-03T07:21:14;1.30;;;1.20;;
7233;SDS011;3658;47.992;10.158;2023-04-03T07:23:41;3.37;;;1.37;;
7233;SDS011;3658;47.992;10.158;2023-04-03T07:26:08;1.50;;;1.30;;
7233;SDS011;3658;47.992;10.158;2023-04-03T07:28:35;1.43;;;1.33;;
7233;SDS011;3658;47.992;10.158;2023-04-03T07:31:04;2.07;;;1.40;;
7233;SDS011;3658;47.992;10.158;2023-04-03T07:33:35;1.77;;;1.33;;
7233;SDS011;3658;47.992;10.158;2023-04-03T07:36:02;1.50;;;1.17;;
7233;SDS011;3658;47.992;10.158;2023-04-03T07:38:31;1.40;;;1.30;;
7233;SDS011;3658;47.992;10.158;2023-04-03T07:40:58;1.40;;;1.30;;
7233;SDS011;3658;47.992;10.158;2023-04-03T07:43:26;1.53;;;1.43;;
7233;SDS011;3658;47.992;10.158;2023-04-03T07:45:53;2.60;;;1.30;;
7233;SDS011;3658;47.992;10.158;2023-04-03T07:48:20;1.97;;;1.40;;
7233;SDS011;3658;47.992;10.158;2023-04-03T07:50:50;1.77;;;1.40;;
7233;SDS011;3658;47.992;10.158;2023-04-03T07:53:18;1.50;;;1.20;;
7233;SDS011;3658;47.992;10.158;2023-04-03T07:55:45;2.27;;;1.50;;
7233;SDS011;3658;47.992;10.158;2023-04-03T07:58:14;1.37;;;1.27;;
7233;SDS011;3658;47.992;10.158;2023-04-03T08:00:42;2.20;;;1.20;;
7233;SDS011;3658;47.992;10.158;2023-04-03T08:03:10;1.83;;;1.53;;
7233;SDS011;3658;47.992;10.158;2023-04-03T08:05:37;1.47;;;1.37;;
7233;SDS011;3658;47.992;10.158;2023-04-03T08:08:07;1.40;;;1.30;;
7233;SDS011;3658;47.992;10.158;2023-04-03T08:10:34;1.40;;;1.30;;
7233;SDS011;3658;47.992;10.158;2023-04-03T08:13:02;3.37;;;1.80;;
7233;SDS011;3658;47.992;10.158;2023-04-03T08:15:30;6.13;;;1.67;;
7233;SDS011;3658;47.992;10.158;2023-04-03T08:17:58;4.43;;;2.77;;
7233;SDS011;3658;47.992;10.158;2023-04-03T08:20:25;3.30;;;2.93;;
7233;SDS011;3658;47.992;10.158;2023-04-03T08:22:53;4.00;;;2.60;;
7233;SDS011;3658;47.992;10.158;2023-04-03T08:25:21;4.43;;;2.90;;
7233;SDS011;3658;47.992;10.158;2023-04-03T08:27:48;3.40;;;2.40;;
7233;SDS011;3658;47.992;10.158;2023-04-03T08:30:15;2.37;;;2.17;;
7233;SDS011;3658;47.992;10.158;2023-04-03T08:32:43;5.90;;;2.20;;
7233;SDS011;3658;47.992;10.158;2023-04-03T08:35:10;4.53;;;2.20;;
7233;SDS011;3658;47.992;10.158;2023-04-03T08:37:38;4.23;;;2.20;;
7233;SDS011;3658;47.992;10.158;2023-04-03T08:40:07;3.67;;;1.90;;
7233;SDS011;3658;47.992;10.158;2023-04-03T08:42:42;2.67;;;1.97;;
7233;SDS011;3658;47.992;10.158;2023-04-03T08:45:19;3.40;;;1.87;;
7233;SDS011;3658;47.992;10.158;2023-04-03T08:47:55;4.23;;;2.00;;
7233;SDS011;3658;47.992;10.158;2023-04-03T08:50:28;3.50;;;1.80;;
7233;SDS011;3658;47.992;10.158;2023-04-03T08:52:59;2.23;;;1.87;;
7233;SDS011;3658;47.992;10.158;2023-04-03T08:55:31;2.00;;;1.77;;
7233;SDS011;3658;47.992;10.158;2023-04-03T08:58:03;1.67;;;1.57;;
7233;SDS011;3658;47.992;10.158;2023-04-03T09:00:32;2.87;;;1.90;;
7233;SDS011;3658;47.992;10.158;2023-04-03T09:03:11;3.03;;;1.83;;
7233;SDS011;3658;47.992;10.158;2023-04-03T09:05:41;1.80;;;1.70;;
7233;SDS011;3658;47.992;10.158;2023-04-03T09:08:18;1.93;;;1.80;;
7233;SDS011;3658;47.992;10.158;2023-04-03T09:10:52;2.85;;;1.60;;
7233;SDS011;3658;47.992;10.158;2023-04-03T09:13:34;3.20;;;1.67;;
7233;SDS011;3658;47.992;10.158;2023-04-03T09:16:15;4.70;;;1.70;;
7233;SDS011;3658;47.992;10.158;2023-04-03T09:18:52;6.77;;;1.70;;
7233;SDS011;3658;47.992;10.158;2023-04-03T09:21:25;2.20;;;1.70;;
7233;SDS011;3658;47.992;10.158;2023-04-03T09:23:58;3.07;;;1.60;;
7233;SDS011;3658;47.992;10.158;2023-04-03T09:26:29;2.43;;;1.50;;
7233;SDS011;3658;47.992;10.158;2023-04-03T09:29:05;3.33;;;1.37;;
7233;SDS011;3658;47.992;10.158;2023-04-03T09:31:36;2.17;;;1.40;;
7233;SDS011;3658;47.992;10.158;2023-04-03T09:34:07;4.57;;;1.73;;
7233;SDS011;3658;47.992;10.158;2023-04-03T09:36:45;7.10;;;1.77;;
7233;SDS011;3658;47.992;10.158;2023-04-03T09:39:23;2.90;;;1.90;;
7233;SDS011;3658;47.992;10.158;2023-04-03T09:42:02;1.50;;;1.40;;
7233;SDS011;3658;47.992;10.158;2023-04-03T09:44:34;1.90;;;1.23;;
7233;SDS011;3658;47.992;10.158;2023-04-03T09:47:17;1.73;;;1.37;;
7233;SDS011;3658;47.992;10.158;2023-04-03T09:49:45;2.53;;;1.63;;
7233;SDS011;3658;47.992;10.158;2023-04-03T09:52:19;3.73;;;1.60;;
7233;SDS011;3658;47.992;10.158;2023-04-03T09:54:48;4.80;;;1.70;;
7233;SDS011;3658;47.992;10.158;2023-04-03T09:57:15;1.43;;;1.33;;
7233;SDS011;3658;47.992;10.158;2023-04-03T09:59:46;3.50;;;1.53;;
7233;SDS011;3658;47.992;10.158;2023-04-03T10:02:28;3.07;;;1.40;;
7233;SDS011;3658;47.992;10.158;2023-04-03T10:05:26;1.40;;;1.30;;
7233;SDS011;3658;47.992;10.158;2023-04-03T10:08:09;1.30;;;1.20;;
7233;SDS011;3658;47.992;10.158;2023-04-03T10:10:48;2.90;;;1.30;;
7233;SDS011;3658;47.992;10.158;2023-04-03T10:13:36;2.37;;;1.50;;
7233;SDS011;3658;47.992;10.158;2023-04-03T10:16:18;6.20;;;1.63;;
7233;SDS011;3658;47.992;10.158;2023-04-03T10:18:49;2.17;;;1.60;;
7233;SDS011;3658;47.992;10.158;2023-04-03T10:21:29;2.17;;;1.63;;
7233;SDS011;3658;47.992;10.158;2023-04-03T10:24:06;2.10;;;1.53;;
7233;SDS011;3658;47.992;10.158;2023-04-03T10:26:39;5.87;;;1.97;;
7233;SDS011;3658;47.992;10.158;2023-04-03T10:29:17;2.23;;;1.73;;
7233;SDS011;3658;47.992;10.158;2023-04-03T10:32:11;5.93;;;2.00;;
7233;SDS011;3658;47.992;10.158;2023-04-03T10:34:49;1.63;;;1.53;;
7233;SDS011;3658;47.992;10.158;2023-04-03T10:37:24;1.70;;;1.60;;
7233;SDS011;3658;47.992;10.158;2023-04-03T10:39:57;1.93;;;1.77;;
7233;SDS011;3658;47.992;10.158;2023-04-03T10:42:28;4.23;;;1.97;;
7233;SDS011;3658;47.992;10.158;2023-04-03T10:45:06;2.00;;;1.50;;
7233;SDS011;3658;47.992;10.158;2023-04-03T10:47:48;4.90;;;1.87;;
7233;SDS011;3658;47.992;10.158;2023-04-03T10:50:29;4.53;;;1.77;;
7233;SDS011;3658;47.992;10.158;2023-04-03T10:53:04;1.73;;;1.50;;
7233;SDS011;3658;47.992;10.158;2023-04-03T10:55:37;2.90;;;1.30;;
7233;SDS011;3658;47.992;10.158;2023-04-03T10:58:11;2.10;;;1.43;;
7233;SDS011;3658;47.992;10.158;2023-04-03T11:00:47;2.20;;;1.50;;
7233;SDS011;3658;47.992;10.158;2023-04-03T11:03:22;2.53;;;1.70;;
7233;SDS011;3658;47.992;10.158;2023-04-03T11:05:56;3.50;;;1.47;;
7233;SDS011;3658;47.992;10.158;2023-04-03T11:08:28;1.80;;;1.40;;
7233;SDS011;3658;47.992;10.158;2023-04-03T11:11:00;2.33;;;1.50;;
7233;SDS011;3658;47.992;10.158;2023-04-03T11:13:32;3.67;;;1.23;;
7233;SDS011;3658;47.992;10.158;2023-04-03T11:16:02;1.70;;;1.60;;
7233;SDS011;3658;47.992;10.158;2023-04-03T11:18:33;6.07;;;1.70;;
7233;SDS011;3658;47.992;10.158;2023-04-03T11:21:04;3.93;;;1.53;;
7233;SDS011;3658;47.992;10.158;2023-04-03T11:23:39;1.57;;;1.30;;
7233;SDS011;3658;47.992;10.158;2023-04-03T11:26:08;3.17;;;1.43;;
7233;SDS011;3658;47.992;10.158;2023-04-03T11:28:37;1.50;;;1.40;;
7233;SDS011;3658;47.992;10.158;2023-04-03T11:31:09;2.00;;;1.17;;
7233;SDS011;3658;47.992;10.158;2023-04-03T11:33:57;2.33;;;1.60;;
7233;SDS011;3658;47.992;10.158;2023-04-03T11:36:32;2.03;;;1.33;;
7233;SDS011;3658;47.992;10.158;2023-04-03T11:39:07;1.40;;;1.30;;
7233;SDS011;3658;47.992;10.158;2023-04-03T11:41:43;2.07;;;1.47;;
7233;SDS011;3658;47.992;10.158;2023-04-03T11:44:25;1.40;;;1.30;;
7233;SDS011;3658;47.992;10.158;2023-04-03T11:47:01;2.40;;;1.50;;
7233;SDS011;3658;47.992;10.158;2023-04-03T11:55:41;2.23;;;1.30;;
7233;SDS011;3658;47.992;10.158;2023-04-03T11:58:11;1.50;;;1.33;;
7233;SDS011;3658;47.992;10.158;2023-04-03T12:09:23;2.13;;;1.40;;
7233;SDS011;3658;47.992;10.158;2023-04-03T12:11:52;3.33;;;1.20;;
7233;SDS011;3658;47.992;10.158;2023-04-03T12:14:22;3.60;;;1.40;;
7233;SDS011;3658;47.992;10.158;2023-04-03T12:16:50;1.47;;;1.30;;
7233;SDS011;3658;47.992;10.158;2023-04-03T12:19:30;1.77;;;1.30;;
7233;SDS011;3658;47.992;10.158;2023-04-03T12:22:07;1.73;;;1.30;;
7233;SDS011;3658;47.992;10.158;2023-04-03T12:24:44;1.87;;;1.30;;
7233;SDS011;3658;47.992;10.158;2023-04-03T12:27:24;1.90;;;1.27;;
7233;SDS011;3658;47.992;10.158;2023-04-03T12:30:00;2.20;;;1.00;;
7233;SDS011;3658;47.992;10.158;2023-04-03T12:32:35;4.83;;;1.30;;
7233;SDS011;3658;47.992;10.158;2023-04-03T12:35:24;1.30;;;1.20;;
7233;SDS011;3658;47.992;10.158;2023-04-03T12:41:03;1.40;;;1.23;;
7233;SDS011;3658;47.992;10.158;2023-04-03T12:43:56;2.80;;;1.30;;
7233;SDS011;3658;47.992;10.158;2023-04-03T12:46:42;1.30;;;1.20;;
7233;SDS011;3658;47.992;10.158;2023-04-03T12:49:30;2.63;;;1.20;;
7233;SDS011;3658;47.992;10.158;2023-04-03T12:52:04;1.73;;;1.30;;
7233;SDS011;3658;47.992;10.158;2023-04-03T12:54:44;1.33;;;1.13;;
7233;SDS011;3658;47.992;10.158;2023-04-03T12:57:13;1.63;;;1.43;;
7233;SDS011;3658;47.992;10.158;2023-04-03T12:59:44;1.60;;;1.20;;
7233;SDS011;3658;47.992;10.158;2023-04-03T13:02:20;2.33;;;1.40;;
7233;SDS011;3658;47.992;10.158;2023-04-03T13:04:50;2.50;;;1.20;;
7233;SDS011;3658;47.992;10.158;2023-04-03T13:07:24;5.00;;;1.37;;
7233;SDS011;3658;47.992;10.158;2023-04-03T13:10:01;4.10;;;1.27;;
7233;SDS011;3658;47.992;10.158;2023-04-03T13:12:30;1.57;;;1.40;;
7233;SDS011;3658;47.992;10.158;2023-04-03T13:14:58;1.30;;;1.20;;
7233;SDS011;3658;47.992;10.158;2023-04-03T13:17:28;1.53;;;1.27;;
7233;SDS011;3658;47.992;10.158;2023-04-03T13:19:57;3.33;;;1.30;;
7233;SDS011;3658;47.992;10.158;2023-04-03T13:22:38;1.57;;;1.20;;
7233;SDS011;3658;47.992;10.158;2023-04-03T13:25:13;1.30;;;1.20;;
7233;SDS011;3658;47.992;10.158;2023-04-03T13:27:42;1.30;;;1.20;;
7233;SDS011;3658;47.992;10.158;2023-04-03T13:30:20;1.00;;;1.00;;
7233;SDS011;3658;47.992;10.158;2023-04-03T13:32:53;2.73;;;1.40;;
7233;SDS011;3658;47.992;10.158;2023-04-03T13:35:34;1.23;;;1.10;;
7233;SDS011;3658;47.992;10.158;2023-04-03T13:38:05;1.00;;;1.00;;
7233;SDS011;3658;47.992;10.158;2023-04-03T13:40:49;1.50;;;1.30;;
7233;SDS011;3658;47.992;10.158;2023-04-03T13:43:18;1.77;;;1.40;;
7233;SDS011;3658;47.992;10.158;2023-04-03T13:45:54;2.10;;;1.23;;
7233;SDS011;3658;47.992;10.158;2023-04-03T13:48:34;1.43;;;1.20;;
7233;SDS011;3658;47.992;10.158;2023-04-03T13:51:04;1.47;;;1.30;;
7233;SDS011;3658;47.992;10.158;2023-04-03T13:53:33;1.97;;;1.17;;
7233;SDS011;3658;47.992;10.158;2023-04-03T13:56:14;2.23;;;1.60;;
7233;SDS011;3658;47.992;10.158;2023-04-03T13:58:52;2.73;;;1.20;;
7233;SDS011;3658;47.992;10.158;2023-04-03T14:01:32;4.03;;;1.40;;
7233;SDS011;3658;47.992;10.158;2023-04-03T14:04:10;2.97;;;1.47;;
7233;SDS011;3658;47.992;10.158;2023-04-03T14:06:41;4.00;;;1.30;;
7233;SDS011;3658;47.992;10.158;2023-04-03T14:09:08;3.70;;;1.20;;
7233;SDS011;3658;47.992;10.158;2023-04-03T14:11:36;3.03;;;1.40;;
7233;SDS011;3658;47.992;10.158;2023-04-03T14:14:06;3.63;;;1.30;;
7233;SDS011;3658;47.992;10.158;2023-04-03T14:16:39;1.60;;;1.30;;
7233;SDS011;3658;47.992;10.158;2023-04-03T14:19:22;4.67;;;1.27;;
7233;SDS011;3658;47.992;10.158;2023-04-03T14:21:50;3.43;;;1.30;;
7233;SDS011;3658;47.992;10.158;2023-04-03T14:24:18;3.00;;;1.60;;
7233;SDS011;3658;47.992;10.158;2023-04-03T14:26:48;1.70;;;1.07;;
7233;SDS011;3658;47.992;10.158;2023-04-03T14:29:16;3.33;;;1.30;;
7233;SDS011;3658;47.992;10.158;2023-04-03T14:31:43;1.47;;;1.37;;
7233;SDS011;3658;47.992;10.158;2023-04-03T14:34:12;2.70;;;1.27;;
7233;SDS011;3658;47.992;10.158;2023-04-03T14:36:40;1.50;;;1.30;;
7233;SDS011;3658;47.992;10.158;2023-04-03T14:39:10;1.63;;;1.03;;
7233;SDS011;3658;47.992;10.158;2023-04-03T14:41:42;2.67;;;1.47;;
7233;SDS011;3658;47.992;10.158;2023-04-03T14:44:11;4.00;;;1.37;;
7233;SDS011;3658;47.992;10.158;2023-04-03T14:46:39;1.67;;;1.20;;
7233;SDS011;3658;47.992;10.158;2023-04-03T14:49:09;1.60;;;1.40;;
7233;SDS011;3658;47.992;10.158;2023-04-03T14:51:40;1.40;;;1.10;;
7233;SDS011;3658;47.992;10.158;2023-04-03T14:54:10;1.60;;;1.30;;
7233;SDS011;3658;47.992;10.158;2023-04-03T14:56:39;2.80;;;1.30;;
7233;SDS011;3658;47.992;10.158;2023-04-03T14:59:08;2.03;;;1.10;;
7233;SDS011;3658;47.992;10.158;2023-04-03T15:01:39;1.30;;;1.20;;
7233;SDS011;3658;47.992;10.158;2023-04-03T15:04:09;1.87;;;1.40;;
7233;SDS011;3658;47.992;10.158;2023-04-03T15:06:38;5.37;;;1.57;;
7233;SDS011;3658;47.992;10.158;2023-04-03T15:09:05;2.10;;;1.27;;
7233;SDS011;3658;47.992;10.158;2023-04-03T15:11:37;1.83;;;1.30;;
7233;SDS011;3658;47.992;10.158;2023-04-03T15:14:04;1.90;;;1.40;;
7233;SDS011;3658;47.992;10.158;2023-04-03T15:16:31;3.03;;;1.30;;
7233;SDS011;3658;47.992;10.158;2023-04-03T15:18:59;2.10;;;1.27;;
7233;SDS011;3658;47.992;10.158;2023-04-03T15:21:26;3.20;;;1.53;;
7233;SDS011;3658;47.992;10.158;2023-04-03T15:23:53;3.13;;;1.50;;
7233;SDS011;3658;47.992;10.158;2023-04-03T15:26:20;2.60;;;1.40;;
7233;SDS011;3658;47.992;10.158;2023-04-03T15:28:47;3.33;;;1.50;;
7233;SDS011;3658;47.992;10.158;2023-04-03T15:31:14;3.47;;;1.50;;
7233;SDS011;3658;47.992;10.158;2023-04-03T15:33:41;4.83;;;1.47;;
7233;SDS011;3658;47.992;10.158;2023-04-03T15:36:10;1.33;;;1.23;;
7233;SDS011;3658;47.992;10.158;2023-04-03T15:38:37;2.23;;;1.30;;
7233;SDS011;3658;47.992;10.158;2023-04-03T15:41:04;4.03;;;1.40;;